Time;durP1;ratioP1;P1;durP2;ratioP2;P2;SDS_P1;SDS_P2;PMS_P1;PMS_P2;Temp;Humidity;BMP_temperature;BMP_pressure;BME280_temperature;BME280_humidity;BME280_pressure;Samples;Min_cycle;Max_cycle;Signal;HPM_P1;HPM_P2
2021/03/12 00:04:01;;;;;;;0.30;0.20;;;;;;;7.39;70.63;99190.47;10372959;28;20455;-69
2021/03/12 00:09:04;;;;;;;1.23;0.15;;;;;;;6.83;73.79;99181.84;10390577;28;20136;-69
2021/03/12 00:14:15;;;;;;;2.72;0.40;;;;;;;7.01;74.31;99192.72;10391366;28;20140;-69
2021/03/12 00:19:16;;;;;;;2.42;0.40;;;;;;;6.93;73.93;99207.53;10377701;28;20128;-69
2021/03/12 00:24:18;;;;;;;0.82;0.20;;;;;;;6.92;74.95;99208.47;10393944;28;20038;-69
2021/03/12 00:29:19;;;;;;;0.32;0.20;;;;;;;7.29;74.40;99192.22;10375603;28;20603;-68
2021/03/12 00:34:21;;;;;;;1.25;0.30;;;;;;;7.29;72.70;99195.69;10390855;28;20192;-70
2021/03/12 00:39:22;;;;;;;1.95;0.28;;;;;;;7.28;73.78;99215.22;10374637;28;20081;-70
2021/03/12 00:44:38;;;;;;;0.93;0.30;;;;;;;7.51;73.51;99241.56;10378921;28;20037;-69
2021/03/12 00:49:39;;;;;;;2.40;0.45;;;;;;;7.40;73.69;99256.53;10393082;28;20046;-70
2021/03/12 00:54:41;;;;;;;1.20;0.20;;;;;;;7.46;72.45;99286.97;10387387;28;20123;-68
2021/03/12 00:59:42;;;;;;;1.55;0.40;;;;;;;7.44;73.86;99313.56;10375393;28;20053;-68
2021/03/12 01:04:43;;;;;;;1.33;0.40;;;;;;;7.35;73.00;99281.72;10395780;28;20060;-70
2021/03/12 01:09:45;;;;;;;2.40;0.57;;;;;;;7.47;73.28;99291.28;10387650;28;20042;-70
2021/03/12 01:15:02;;;;;;;1.35;0.75;;;;;;;7.60;71.32;99296.41;10375392;28;20095;-70
2021/03/12 01:20:07;;;;;;;3.83;0.90;;;;;;;7.35;68.70;99285.19;10388250;28;20077;-70
2021/03/12 01:25:12;;;;;;;3.08;0.65;;;;;;;7.21;67.83;99269.63;10390918;28;20477;-71
2021/03/12 01:30:23;;;;;;;2.67;0.77;;;;;;;7.16;67.69;99295.59;10401776;28;20117;-69
2021/03/12 01:35:24;;;;;;;2.53;0.90;;;;;;;7.07;66.34;99292.75;10395007;28;20351;-70
2021/03/12 01:40:28;;;;;;;3.58;0.90;;;;;;;7.04;67.09;99282.44;10398812;28;20079;-70
2021/03/12 01:45:36;;;;;;;4.22;0.80;;;;;;;7.06;66.40;99301.66;10409598;28;21979;-68
2021/03/12 01:50:39;;;;;;;2.00;1.30;;;;;;;7.18;66.33;99293.69;10423045;28;20056;-68
2021/03/12 01:55:41;;;;;;;3.33;0.80;;;;;;;7.18;64.91;99301.63;10401937;28;20491;-68
2021/03/12 02:00:43;;;;;;;1.75;0.75;;;;;;;7.25;65.00;99311.59;10387674;28;20149;-69
2021/03/12 02:05:44;;;;;;;2.72;0.68;;;;;;;7.14;64.69;99287.78;10388265;28;20038;-69
2021/03/12 02:10:47;;;;;;;4.55;0.80;;;;;;;7.39;63.91;99313.09;10374731;28;20057;-69
2021/03/12 02:15:55;;;;;;;1.73;0.40;;;;;;;7.42;64.52;99336.69;10386906;28;20212;-69
2021/03/12 02:21:06;;;;;;;1.20;0.65;;;;;;;7.44;65.09;99371.81;10382368;28;20053;-68
2021/03/12 02:26:30;;;;;;;3.30;0.63;;;;;;;6.92;69.48;99391.03;10386285;28;20107;-68
2021/03/12 02:31:33;;;;;;;2.35;0.43;;;;;;;6.33;71.35;99380.53;10358333;28;20050;-67
2021/03/12 02:36:38;;;;;;;2.40;0.50;;;;;;;6.08;71.02;99389.53;10385231;28;20144;-68
2021/03/12 02:41:41;;;;;;;1.35;0.50;;;;;;;5.94;70.44;99372.00;10386105;28;20042;-69
2021/03/12 02:46:44;;;;;;;1.88;0.50;;;;;;;5.97;70.94;99381.56;10374755;28;20045;-68
2021/03/12 02:51:47;;;;;;;1.58;0.68;;;;;;;5.86;70.23;99379.69;10392311;28;20103;-71
2021/03/12 02:56:48;;;;;;;2.75;0.60;;;;;;;5.96;69.91;99375.41;10392903;28;20042;-68
2021/03/12 03:01:52;;;;;;;1.40;0.40;;;;;;;6.01;68.50;99362.72;10394946;28;20158;-67
2021/03/12 03:06:54;;;;;;;3.15;1.15;;;;;;;5.98;68.37;99377.97;10379317;28;20753;-68
2021/03/12 03:11:56;;;;;;;3.13;0.70;;;;;;;5.99;68.35;99385.78;10376835;28;20296;-67
2021/03/12 03:17:05;;;;;;;3.40;0.57;;;;;;;6.09;68.37;99395.63;10373850;28;20427;-68
2021/03/12 03:22:07;;;;;;;1.05;0.40;;;;;;;6.26;68.50;99397.00;10373609;28;20057;-68
2021/03/12 03:27:08;;;;;;;2.80;0.57;;;;;;;6.32;67.74;99402.66;10394255;28;20083;-69
2021/03/12 03:32:10;;;;;;;5.05;1.45;;;;;;;6.19;68.48;99417.78;10373020;28;20068;-68
2021/03/12 03:37:12;;;;;;;8.27;1.20;;;;;;;6.27;67.69;99430.41;10375180;28;20423;-67
2021/03/12 03:42:16;;;;;;;2.33;0.63;;;;;;;6.24;66.50;99433.28;10369206;28;20056;-68
2021/03/12 03:47:18;;;;;;;3.03;0.80;;;;;;;6.21;66.28;99439.63;10391493;28;20065;-67
2021/03/12 03:52:22;;;;;;;3.38;0.93;;;;;;;6.16;66.27;99424.13;10390360;28;20515;-68
2021/03/12 03:57:24;;;;;;;3.97;1.20;;;;;;;6.24;65.68;99439.41;10374295;28;20045;-69
2021/03/12 04:02:26;;;;;;;3.58;0.95;;;;;;;6.17;64.78;99440.81;10390255;28;20107;-68
2021/03/12 04:07:28;;;;;;;4.80;0.80;;;;;;;6.21;65.34;99459.94;10392548;28;20141;-67
2021/03/12 04:12:30;;;;;;;6.80;2.38;;;;;;;6.17;64.61;99451.38;10375723;28;20065;-68
2021/03/12 04:17:33;;;;;;;2.35;0.95;;;;;;;6.17;65.08;99467.25;10391755;28;20053;-67
2021/03/12 04:22:37;;;;;;;1.88;0.52;;;;;;;6.11;63.87;99463.28;10420871;28;20135;-70
2021/03/12 04:27:39;;;;;;;4.60;0.80;;;;;;;6.05;64.43;99469.03;10377181;28;20045;-68
2021/03/12 04:32:40;;;;;;;3.42;1.58;;;;;;;6.05;63.66;99476.09;10397527;28;20061;-68
2021/03/12 04:37:42;;;;;;;4.63;1.40;;;;;;;6.03;64.06;99485.94;10414458;28;20065;-68
2021/03/12 04:42:44;;;;;;;3.97;1.00;;;;;;;6.03;63.14;99486.75;10427520;28;20064;-68
2021/03/12 04:47:47;;;;;;;7.13;1.13;;;;;;;6.10;63.16;99503.03;10391381;28;20628;-68
2021/03/12 04:52:49;;;;;;;3.00;1.20;;;;;;;6.03;62.89;99510.53;10387235;28;20053;-67
2021/03/12 04:57:51;;;;;;;3.10;1.10;;;;;;;6.07;62.38;99516.47;10388021;28;20218;-68
2021/03/12 05:02:53;;;;;;;3.88;0.68;;;;;;;6.29;61.55;99528.91;10386208;28;20482;-69
2021/03/12 05:07:55;;;;;;;4.70;1.10;;;;;;;6.35;60.81;99539.03;10368837;28;20527;-69
2021/03/12 05:12:57;;;;;;;4.75;1.70;;;;;;;6.11;61.25;99541.69;10386481;28;20045;-70
2021/03/12 05:18:00;;;;;;;5.00;0.90;;;;;;;6.19;61.69;99556.03;10387210;28;20052;-68
2021/03/12 05:23:02;;;;;;;5.40;1.05;;;;;;;6.06;61.58;99551.75;10389134;28;20095;-69
2021/03/12 05:28:03;;;;;;;5.95;1.17;;;;;;;6.10;62.15;99555.88;10389591;28;20546;-69
2021/03/12 05:33:05;;;;;;;3.78;1.25;;;;;;;6.15;62.11;99564.28;10370268;28;20080;-69
2021/03/12 05:38:06;;;;;;;5.13;0.98;;;;;;;6.15;63.05;99580.97;10385787;28;20055;-68
2021/03/12 05:43:09;;;;;;;7.22;1.45;;;;;;;6.10;63.17;99577.00;10386525;28;20579;-68
2021/03/12 05:48:24;;;;;;;5.13;0.70;;;;;;;6.07;63.66;99570.13;10374297;28;20072;-68
2021/03/12 05:53:27;;;;;;;4.28;1.50;;;;;;;5.95;64.44;99574.47;10388970;28;20124;-68
2021/03/12 05:58:28;;;;;;;5.63;1.70;;;;;;;6.01;65.00;99578.53;10390470;28;20424;-68
2021/03/12 06:03:30;;;;;;;3.22;0.77;;;;;;;5.96;65.42;99581.47;10385793;28;20128;-67
2021/03/12 06:08:31;;;;;;;4.22;1.17;;;;;;;6.07;65.52;99593.94;10386705;28;20121;-70
2021/03/12 06:13:49;;;;;;;4.50;1.73;;;;;;;6.15;65.21;99601.28;10387030;28;20538;-70
2021/03/12 06:19:14;;;;;;;3.53;1.30;;;;;;;6.25;65.69;99612.06;10394219;28;20080;-68
2021/03/12 06:24:28;;;;;;;6.10;1.40;;;;;;;6.34;64.88;99627.25;10394715;28;20111;-68
2021/03/12 06:29:33;;;;;;;5.17;1.70;;;;;;;6.29;65.18;99632.88;10394220;28;20042;-69
2021/03/12 06:34:34;;;;;;;2.60;1.15;;;;;;;6.46;65.06;99636.06;10395316;28;20163;-67
2021/03/12 06:39:40;;;;;;;6.38;1.40;;;;;;;6.48;64.49;99642.09;10393614;28;20144;-69
2021/03/12 06:44:41;;;;;;;3.22;1.38;;;;;;;6.47;64.41;99643.03;10392145;28;20042;-67
2021/03/12 06:49:54;;;;;;;6.75;1.10;;;;;;;6.46;64.12;99641.38;10375631;28;20136;-69
2021/03/12 06:54:55;;;;;;;6.20;2.00;;;;;;;6.56;64.05;99647.66;10378050;28;20069;-69
2021/03/12 07:00:02;;;;;;;8.18;1.63;;;;;;;6.54;64.13;99661.00;10381550;28;20128;-68
2021/03/12 07:05:06;;;;;;;5.07;1.30;;;;;;;6.69;63.69;99647.59;10395205;28;20056;-68
2021/03/12 07:10:10;;;;;;;4.63;1.65;;;;;;;6.65;64.07;99656.69;10385112;28;20057;-70
2021/03/12 07:15:13;;;;;;;7.63;1.52;;;;;;;6.73;63.20;99655.19;10429045;28;20049;-69
2021/03/12 07:20:18;;;;;;;7.53;2.13;;;;;;;6.65;63.45;99652.28;10395488;28;20113;-69
2021/03/12 07:25:24;;;;;;;3.20;0.93;;;;;;;6.76;63.67;99679.75;10415937;28;20037;-68
2021/03/12 07:30:26;;;;;;;5.20;1.30;;;;;;;6.76;63.22;99674.47;10415103;28;20029;-69
2021/03/12 07:35:27;;;;;;;3.40;1.60;;;;;;;6.88;63.73;99686.78;10423111;28;20523;-70
2021/03/12 07:40:29;;;;;;;6.88;2.03;;;;;;;6.97;63.09;99679.94;10396051;28;20056;-69
2021/03/12 07:45:31;;;;;;;5.85;2.13;;;;;;;6.95;63.36;99690.66;10396184;28;20702;-69
2021/03/12 07:50:37;;;;;;;4.53;1.52;;;;;;;6.96;62.96;99696.78;10394123;28;20519;-71
2021/03/12 07:55:38;;;;;;;5.25;1.40;;;;;;;7.04;63.61;99719.06;10380102;28;20524;-68
2021/03/12 08:00:52;;;;;;;7.57;1.88;;;;;;;7.09;62.90;99724.03;10392413;28;20107;-67
2021/03/12 08:05:54;;;;;;;5.70;2.08;;;;;;;7.29;62.77;99730.47;10389119;28;20045;-69
2021/03/12 08:11:20;;;;;;;6.82;1.90;;;;;;;7.26;61.63;99735.97;10397192;28;20141;-69
2021/03/12 08:16:22;;;;;;;7.45;2.03;;;;;;;7.40;61.65;99735.81;10373547;28;20072;-68
2021/03/12 08:21:32;;;;;;;6.13;1.80;;;;;;;7.82;59.90;99731.78;10377726;28;20669;-69
2021/03/12 08:26:55;;;;;;;8.00;2.13;;;;;;;7.83;59.73;99723.72;10393309;28;20101;-69
2021/03/12 08:31:57;;;;;;;5.70;2.28;;;;;;;7.93;59.91;99724.69;10392219;28;20044;-69
2021/03/12 08:37:31;;;;;;;4.97;1.38;;;;;;;8.48;57.06;99724.81;10392126;28;20049;-69
2021/03/12 08:43:08;;;;;;;6.85;1.95;;;;;;;8.85;56.17;99718.34;10389887;28;20057;-70
2021/03/12 08:48:12;;;;;;;5.93;1.80;;;;;;;8.42;55.51;99720.00;10386656;28;20050;-70
2021/03/12 08:53:13;;;;;;;5.77;1.40;;;;;;;8.28;55.89;99717.59;10373202;28;20166;-69
2021/03/12 08:58:19;;;;;;;7.53;1.35;;;;;;;8.45;55.66;99714.47;10389816;28;20760;-70
2021/03/12 09:03:21;;;;;;;;;;;;;;;8.71;54.61;99727.44;10369536;28;20120;-69
2021/03/12 09:08:27;;;;;;;4.55;1.35;;;;;;;9.46;53.71;99725.69;10385188;28;19931;-70
2021/03/12 09:13:30;;;;;;;2.42;1.10;;;;;;;9.62;52.34;99751.78;10388875;28;20120;-70
2021/03/12 09:18:33;;;;;;;4.82;1.20;;;;;;;9.99;51.27;99710.59;10388837;28;20045;-68
2021/03/12 09:23:37;;;;;;;6.60;1.48;;;;;;;9.53;52.24;99716.22;10373786;28;20049;-69
2021/03/12 09:28:39;;;;;;;7.10;2.15;;;;;;;9.82;51.81;99701.44;10372544;28;20138;-69
2021/03/12 09:34:00;;;;;;;6.88;2.40;;;;;;;10.26;50.67;99702.03;10374104;28;20125;-70
2021/03/12 09:39:22;;;;;;;7.80;2.17;;;;;;;10.85;48.71;99684.38;10384000;22;20045;-65
2021/03/12 09:44:25;;;;;;;4.43;2.03;;;;;;;10.71;48.65;99695.44;10379042;28;20454;-65
2021/03/12 09:49:32;;;;;;;3.88;1.65;;;;;;;10.47;48.32;99694.00;10374721;28;20168;-64
2021/03/12 09:54:36;;;;;;;5.38;1.80;;;;;;;10.90;46.64;99698.13;10325866;28;20128;-64
2021/03/12 09:59:38;;;;;;;3.08;1.17;;;;;;;10.93;46.29;99671.22;10350153;28;20072;-71
2021/03/12 10:05:05;;;;;;;7.53;2.00;;;;;;;11.52;44.71;99673.81;10328579;28;20041;-64
2021/03/12 10:10:27;;;;;;;3.80;1.40;;;;;;;12.39;43.07;99671.81;10338905;28;20054;-63
2021/03/12 10:15:35;;;;;;;4.65;1.48;;;;;;;12.94;40.88;99662.88;10337681;28;20128;-65
2021/03/12 10:20:37;;;;;;;5.05;1.27;;;;;;;13.77;38.92;99650.97;10342581;28;20078;-64
2021/03/12 10:25:45;;;;;;;3.28;1.20;;;;;;;14.77;36.36;99648.47;10344831;28;20128;-65
2021/03/12 10:30:49;;;;;;;5.50;1.33;;;;;;;13.55;39.21;99647.81;10339924;28;20507;-65
2021/03/12 10:35:55;;;;;;;5.25;1.85;;;;;;;14.25;38.28;99664.72;10348937;28;20100;-64
2021/03/12 10:41:01;;;;;;;3.80;1.52;;;;;;;14.09;38.55;99634.19;10335780;28;20042;-66
2021/03/12 10:46:07;;;;;;;9.00;1.52;;;;;;;14.33;37.11;99635.28;10330545;28;20520;-67
2021/03/12 10:51:10;;;;;;;3.17;1.05;;;;;;;14.46;37.04;99630.31;10340453;28;20140;-66
2021/03/12 10:56:12;;;;;;;5.85;1.30;;;;;;;15.62;34.19;99619.59;10333828;28;20058;-64
2021/03/12 11:01:18;;;;;;;4.45;2.05;;;;;;;13.90;37.54;99624.59;10336215;28;20129;-65
2021/03/12 11:06:22;;;;;;;7.28;1.77;;;;;;;12.86;38.77;99604.00;10338067;28;20058;-64
2021/03/12 11:11:25;;;;;;;5.43;2.67;;;;;;;12.96;40.00;99610.13;10344936;28;20046;-64
2021/03/12 11:16:26;;;;;;;4.80;1.20;;;;;;;14.44;36.31;99602.88;10323083;28;20503;-65
2021/03/12 11:21:28;;;;;;;3.53;1.63;;;;;;;14.65;36.02;99601.56;10348769;28;20062;-65
2021/03/12 11:26:29;;;;;;;6.78;1.45;;;;;;;13.90;37.24;99597.84;10350165;28;20073;-65
2021/03/12 11:31:30;;;;;;;3.67;1.60;;;;;;;13.15;38.19;99586.88;10356791;28;20173;-65
2021/03/12 11:36:32;;;;;;;6.22;1.63;;;;;;;15.87;34.24;99602.44;10347444;28;20054;-64
2021/03/12 11:41:34;;;;;;;6.50;1.20;;;;;;;15.42;33.47;99589.63;10333220;28;20364;-67
2021/03/12 11:46:35;;;;;;;5.03;1.02;;;;;;;14.89;34.24;99581.97;10345678;28;20050;-65
2021/03/12 11:51:40;;;;;;;3.97;0.80;;;;;;;15.36;34.95;99569.72;10343052;28;20057;-66
2021/03/12 11:56:41;;;;;;;3.97;1.13;;;;;;;15.60;33.20;99567.94;10327065;28;20404;-64
2021/03/12 12:01:43;;;;;;;4.10;0.70;;;;;;;15.74;33.27;99554.66;10340628;28;20054;-65
2021/03/12 12:06:44;;;;;;;6.38;1.35;;;;;;;18.14;28.83;99545.38;10341905;28;20052;-65
2021/03/12 12:11:46;;;;;;;3.25;1.13;;;;;;;19.14;27.27;99545.47;10339646;28;20130;-66
2021/03/12 12:16:48;;;;;;;4.20;1.15;;;;;;;18.32;28.02;99551.16;10341292;28;20066;-65
2021/03/12 12:21:50;;;;;;;5.00;1.45;;;;;;;15.28;33.75;99553.63;10340465;28;20054;-65
2021/03/12 12:26:51;;;;;;;4.53;1.90;;;;;;;12.48;39.75;99556.13;10334782;28;20501;-64
2021/03/12 12:31:52;;;;;;;6.07;1.88;;;;;;;11.63;44.59;99569.69;10341074;28;20457;-66
2021/03/12 12:36:55;;;;;;;4.63;1.67;;;;;;;14.70;41.06;99567.09;10336384;28;20129;-64
2021/03/12 12:41:56;;;;;;;4.22;1.02;;;;;;;23.08;25.22;99557.94;10332498;28;20057;-65
2021/03/12 12:46:57;;;;;;;2.20;0.75;;;;;;;26.31;21.06;99542.78;10344043;28;20062;-66
2021/03/12 12:51:59;;;;;;;5.13;1.17;;;;;;;26.53;19.83;99533.88;10343234;28;20453;-65
2021/03/12 12:57:00;;;;;;;3.95;0.80;;;;;;;27.90;18.44;99528.00;10349041;28;20121;-65
2021/03/12 13:02:01;;;;;;;2.67;0.87;;;;;;;25.59;20.49;99520.34;10372671;28;20038;-65
2021/03/12 13:07:03;;;;;;;2.90;1.00;;;;;;;25.62;20.84;99502.69;10342448;28;20080;-66
2021/03/12 13:12:05;;;;;;;5.35;1.50;;;;;;;25.15;21.08;99500.03;10339607;28;20132;-65
2021/03/12 13:17:06;;;;;;;3.08;0.80;;;;;;;27.15;18.64;99481.91;10336573;28;20130;-65
2021/03/12 13:22:07;;;;;;;3.67;0.87;;;;;;;20.32;25.94;99485.97;10333711;28;20133;-65
2021/03/12 13:27:08;;;;;;;4.45;1.38;;;;;;;17.05;31.05;99466.09;10323475;28;20161;-64
2021/03/12 13:32:10;;;;;;;4.60;1.20;;;;;;;18.81;29.02;99468.66;10323371;28;20440;-64
2021/03/12 13:37:11;;;;;;;2.60;0.77;;;;;;;19.50;27.38;99468.88;10332963;28;20050;-65
2021/03/12 13:42:14;;;;;;;3.13;0.90;;;;;;;21.32;26.52;99450.75;10346832;28;20038;-66
2021/03/12 13:47:15;;;;;;;3.40;1.05;;;;;;;20.66;26.58;99462.53;10332218;28;20100;-64
2021/03/12 13:52:17;;;;;;;4.55;1.08;;;;;;;18.90;29.44;99453.22;10339394;28;20137;-64
2021/03/12 13:57:18;;;;;;;4.35;1.75;;;;;;;16.78;33.21;99428.06;10342401;28;20132;-65
2021/03/12 14:02:19;;;;;;;4.82;1.42;;;;;;;14.21;38.29;99433.19;10341262;28;20061;-65
2021/03/12 14:07:21;;;;;;;4.65;1.77;;;;;;;13.76;40.18;99441.47;10340968;28;20060;-65
2021/03/12 14:12:22;;;;;;;6.13;1.50;;;;;;;14.96;37.09;99405.31;10340339;28;20155;-64
2021/03/12 14:17:24;;;;;;;6.22;1.80;;;;;;;14.36;37.65;99395.88;10333910;28;20049;-66
2021/03/12 14:22:25;;;;;;;7.00;1.73;;;;;;;14.46;37.54;99408.06;10330153;28;20077;-65
2021/03/12 14:27:43;;;;;;;4.63;1.70;;;;;;;13.19;37.29;99385.16;10351207;28;20128;-65
2021/03/12 14:32:44;;;;;;;4.80;1.83;;;;;;;13.20;37.30;99386.84;10341973;28;20508;-65
2021/03/12 14:37:46;;;;;;;4.80;1.75;;;;;;;13.31;36.45;99389.19;10344358;28;20139;-64
2021/03/12 14:42:48;;;;;;;4.20;1.25;;;;;;;13.31;36.20;99366.97;10354920;28;20135;-65
2021/03/12 14:47:49;;;;;;;5.85;1.40;;;;;;;13.26;36.50;99373.66;10347911;28;20520;-64
2021/03/12 14:52:51;;;;;;;5.35;1.45;;;;;;;13.07;37.35;99366.72;10351772;28;20048;-65
2021/03/12 14:58:01;;;;;;;7.07;1.60;;;;;;;12.43;38.12;99354.72;10343838;28;20041;-64
2021/03/12 15:03:02;;;;;;;8.18;1.58;;;;;;;11.94;38.72;99353.38;10331942;28;20056;-64
2021/03/12 15:08:04;;;;;;;6.20;1.77;;;;;;;11.72;39.05;99359.16;10342390;28;20468;-66
2021/03/12 15:13:06;;;;;;;10.25;1.85;;;;;;;11.60;39.76;99351.38;10337293;28;20141;-66
2021/03/12 15:18:07;;;;;;;6.97;2.03;;;;;;;11.74;39.85;99349.19;10341064;28;20160;-64
2021/03/12 15:23:10;;;;;;;4.90;1.20;;;;;;;11.68;40.45;99354.16;10329110;28;20564;-65
2021/03/12 15:28:11;;;;;;;6.15;1.83;;;;;;;11.29;41.04;99322.44;10344504;28;20133;-65
2021/03/12 15:33:12;;;;;;;4.05;1.27;;;;;;;11.24;41.45;99326.56;10341096;28;20124;-65
2021/03/12 15:38:15;;;;;;;7.28;1.75;;;;;;;11.15;41.51;99333.63;10334834;28;20244;-64
2021/03/12 15:43:16;;;;;;;5.75;1.35;;;;;;;10.99;42.04;99331.63;10332812;28;20556;-65
2021/03/12 15:48:18;;;;;;;6.07;1.77;;;;;;;10.86;42.60;99325.81;10355721;23;20520;-71
2021/03/12 15:53:19;;;;;;;5.50;1.52;;;;;;;10.87;42.59;99317.66;10355287;28;20046;-71
2021/03/12 15:58:21;;;;;;;6.93;1.88;;;;;;;10.76;42.91;99299.22;10387869;28;20045;-72
2021/03/12 16:03:22;;;;;;;6.25;1.92;;;;;;;10.73;43.36;99287.06;10380212;28;20054;-73
2021/03/12 16:08:26;;;;;;;5.22;1.52;;;;;;;10.68;43.50;99276.00;10372777;28;20060;-72
2021/03/12 16:13:28;;;;;;;5.70;1.48;;;;;;;10.68;43.83;99302.63;10346216;28;20128;-71
2021/03/12 16:18:29;;;;;;;7.60;2.08;;;;;;;10.49;44.36;99276.94;10361157;28;20166;-71
2021/03/12 16:23:48;;;;;;;6.63;1.67;;;;;;;10.48;44.38;99264.63;10365338;28;20064;-71
2021/03/12 16:28:51;;;;;;;7.55;3.13;;;;;;;10.52;44.24;99243.88;10348949;28;20446;-71
2021/03/12 16:33:53;;;;;;;7.03;1.60;;;;;;;10.60;44.69;99255.47;10361260;28;20187;-72
2021/03/12 16:38:54;;;;;;;11.75;7.43;;;;;;;10.63;45.30;99242.84;10358143;28;20527;-71
2021/03/12 16:43:55;;;;;;;5.95;1.65;;;;;;;10.55;45.21;99236.44;10339602;28;20120;-71
2021/03/12 16:48:57;;;;;;;5.10;2.55;;;;;;;10.49;45.41;99229.03;10371281;28;20121;-71
2021/03/12 16:53:59;;;;;;;7.07;1.70;;;;;;;10.43;45.27;99234.94;10370956;28;20389;-71
2021/03/12 16:59:00;;;;;;;7.05;3.33;;;;;;;10.44;44.86;99228.66;10365987;28;20552;-72
2021/03/12 17:04:01;;;;;;;7.45;2.75;;;;;;;10.50;44.72;99204.13;10345290;28;20449;-71
2021/03/12 17:09:07;;;;;;;4.65;1.25;;;;;;;10.45;44.27;99217.03;10366702;28;20049;-71
2021/03/12 17:14:09;;;;;;;3.92;1.40;;;;;;;10.42;43.80;99210.19;10364745;28;20080;-71
2021/03/12 17:19:11;;;;;;;4.40;1.52;;;;;;;10.39;44.21;99212.31;10345826;28;20050;-72
2021/03/12 17:24:12;;;;;;;4.05;1.33;;;;;;;10.40;43.93;99212.16;10359083;28;20689;-72
2021/03/12 17:29:14;;;;;;;4.80;1.50;;;;;;;10.46;43.73;99218.69;10348268;28;20139;-72
2021/03/12 17:34:16;;;;;;;5.90;2.47;;;;;;;10.45;43.97;99219.69;10336597;28;20117;-71
2021/03/12 17:39:17;;;;;;;5.45;1.30;;;;;;;10.32;45.15;99217.34;10356478;28;20076;-70
2021/03/12 17:44:19;;;;;;;4.95;1.55;;;;;;;10.20;45.87;99219.34;10355096;28;20508;-71
2021/03/12 17:49:20;;;;;;;4.07;1.77;;;;;;;10.18;45.87;99213.34;10361093;28;20046;-71
2021/03/12 17:54:23;;;;;;;6.18;1.27;;;;;;;10.21;46.07;99214.88;10338340;28;20058;-71
2021/03/12 17:59:25;;;;;;;7.50;2.30;;;;;;;10.24;46.14;99226.06;10361661;28;20052;-72
2021/03/12 18:04:26;;;;;;;6.63;2.03;;;;;;;10.01;50.35;99244.22;10337446;28;20045;-72
2021/03/12 18:09:27;;;;;;;9.00;2.00;;;;;;;9.78;54.61;99230.41;10361540;28;20046;-72
2021/03/12 18:14:28;;;;;;;4.30;1.02;;;;;;;9.60;56.15;99264.84;10377919;28;20104;-71
2021/03/12 18:19:30;;;;;;;8.27;1.38;;;;;;;9.42;59.63;99267.34;10360939;28;20084;-72
2021/03/12 18:24:32;;;;;;;7.63;1.77;;;;;;;8.97;62.80;99259.94;10365995;28;20565;-72
2021/03/12 18:29:33;;;;;;;4.95;1.40;;;;;;;9.02;62.71;99245.28;10349579;28;20064;-72
2021/03/12 18:34:35;;;;;;;4.65;1.77;;;;;;;9.09;63.07;99245.53;10408665;28;20084;-71
2021/03/12 18:39:37;;;;;;;6.63;1.90;;;;;;;8.83;63.49;99240.78;10380010;28;20056;-71
2021/03/12 18:44:38;;;;;;;4.05;1.80;;;;;;;8.80;64.18;99233.09;10382678;28;20146;-72
2021/03/12 18:49:42;;;;;;;6.45;2.00;;;;;;;8.81;64.74;99228.59;10393614;28;20145;-72
2021/03/12 18:54:44;;;;;;;7.38;1.73;;;;;;;8.97;64.25;99220.94;10388352;28;20046;-71
2021/03/12 18:59:45;;;;;;;4.03;1.90;;;;;;;9.15;63.10;99221.09;10373987;28;20052;-72
2021/03/12 19:04:46;;;;;;;6.65;1.67;;;;;;;9.14;63.17;99216.78;10367328;28;20435;-71
2021/03/12 19:09:48;;;;;;;8.13;1.88;;;;;;;9.05;63.52;99211.44;10346662;28;20461;-72
2021/03/12 19:14:50;;;;;;;6.25;2.40;;;;;;;9.07;65.38;99244.84;10350866;28;20042;-72
2021/03/12 19:19:51;;;;;;;6.50;2.05;;;;;;;9.00;67.12;99278.25;10370419;28;20068;-71
2021/03/12 19:24:53;;;;;;;6.40;1.60;;;;;;;8.10;71.74;99290.44;10362808;28;20064;-71
2021/03/12 19:29:54;;;;;;;4.05;1.00;;;;;;;7.60;74.85;99304.34;10359869;28;20107;-71
2021/03/12 19:34:59;;;;;;;2.42;0.73;;;;;;;7.44;74.77;99318.84;10364468;28;20397;-70
2021/03/12 19:40:00;;;;;;;4.07;0.70;;;;;;;7.18;74.74;99309.56;10352197;28;20056;-71
2021/03/12 19:45:04;;;;;;;0.70;0.30;;;;;;;7.21;73.64;99310.16;10358139;28;20045;-72
2021/03/12 19:50:07;;;;;;;0.65;0.47;;;;;;;7.07;73.86;99274.22;10350492;28;20049;-72
2021/03/12 19:55:09;;;;;;;3.33;0.65;;;;;;;7.20;74.19;99254.69;10356518;28;20082;-72
2021/03/12 20:00:14;;;;;;;0.90;0.63;;;;;;;7.15;74.76;99235.72;10359586;28;20101;-72
2021/03/12 20:05:15;;;;;;;1.75;0.70;;;;;;;7.29;74.17;99255.75;10357536;28;20058;-72
2021/03/12 20:10:19;;;;;;;1.27;0.50;;;;;;;7.31;73.59;99259.09;10385814;28;20136;-73
2021/03/12 20:15:20;;;;;;;1.90;0.43;;;;;;;7.20;72.98;99260.00;10360498;28;20056;-70
2021/03/12 20:20:22;;;;;;;1.73;0.30;;;;;;;6.97;73.51;99281.22;10364903;28;20054;-72
2021/03/12 20:25:23;;;;;;;1.30;0.40;;;;;;;6.85;74.21;99288.34;10311757;28;20428;-72
2021/03/12 20:30:25;;;;;;;2.25;0.60;;;;;;;6.56;74.41;99282.75;10345348;28;20571;-71
2021/03/12 20:35:26;;;;;;;2.17;0.57;;;;;;;6.51;75.37;99290.19;10344269;28;20132;-71
2021/03/12 20:40:34;;;;;;;0.98;0.38;;;;;;;6.50;74.59;99280.56;10357913;28;20057;-71
2021/03/12 20:45:36;;;;;;;2.20;0.88;;;;;;;6.52;75.15;99276.03;10364111;28;20045;-71
2021/03/12 20:50:38;;;;;;;2.35;1.00;;;;;;;6.59;75.42;99276.38;10361293;28;20050;-72
2021/03/12 20:55:40;;;;;;;3.00;0.85;;;;;;;6.54;74.57;99263.50;10358275;28;20069;-71
2021/03/12 21:00:41;;;;;;;3.47;0.80;;;;;;;6.50;74.55;99273.50;10362284;28;20471;-72
2021/03/12 21:05:43;;;;;;;2.50;0.50;;;;;;;6.51;73.75;99274.34;10365072;28;20050;-70
2021/03/12 21:10:44;;;;;;;2.53;0.73;;;;;;;6.62;73.89;99287.56;10344653;28;20105;-71
2021/03/12 21:15:45;;;;;;;2.03;0.75;;;;;;;6.69;72.95;99278.16;10395381;28;20050;-72
2021/03/12 21:20:46;;;;;;;1.95;0.65;;;;;;;6.67;73.04;99282.72;10366498;28;20084;-72
2021/03/12 21:25:48;;;;;;;2.33;0.47;;;;;;;6.65;72.77;99281.16;10366259;28;20045;-71
2021/03/12 21:30:50;;;;;;;1.83;0.57;;;;;;;6.75;72.02;99294.50;10349338;28;20109;-71
2021/03/12 21:35:51;;;;;;;2.88;0.30;;;;;;;6.84;71.56;99314.94;10368814;28;20050;-72
2021/03/12 21:40:54;;;;;;;1.33;0.40;;;;;;;6.73;72.13;99311.34;10399279;28;20137;-70
2021/03/12 21:45:58;;;;;;;0.82;0.30;;;;;;;6.84;71.82;99312.28;10385174;28;20111;-72
2021/03/12 21:51:00;;;;;;;1.25;0.32;;;;;;;6.90;72.09;99322.38;10352095;28;20137;-71
2021/03/12 21:56:02;;;;;;;1.92;0.47;;;;;;;6.65;73.31;99313.75;10357743;28;20088;-73
2021/03/12 22:01:03;;;;;;;3.50;0.85;;;;;;;6.75;72.35;99328.91;10395712;28;20125;-71
2021/03/12 22:06:05;;;;;;;1.23;0.40;;;;;;;6.67;72.93;99327.69;10343893;22;20060;-70
2021/03/12 22:11:06;;;;;;;1.73;1.10;;;;;;;6.66;71.79;99330.47;10362457;28;20050;-71
2021/03/12 22:16:07;;;;;;;1.70;0.35;;;;;;;6.67;72.09;99322.41;10345535;28;20046;-69
2021/03/12 22:21:09;;;;;;;0.50;0.20;;;;;;;6.55;71.82;99315.44;10361761;28;20444;-71
2021/03/12 22:26:10;;;;;;;0.70;0.40;;;;;;;6.63;71.62;99318.31;10353268;28;20054;-71
2021/03/12 22:31:18;;;;;;;0.68;0.50;;;;;;;6.56;71.82;99319.78;10338585;28;20073;-69
2021/03/12 22:36:19;;;;;;;0.75;0.50;;;;;;;6.50;71.94;99317.59;10355197;28;20117;-70
2021/03/12 22:41:20;;;;;;;1.00;0.50;;;;;;;6.66;73.20;99318.06;10351846;28;20567;-70
2021/03/12 22:46:22;;;;;;;1.25;0.57;;;;;;;6.61;73.27;99316.78;10350419;28;20120;-70
2021/03/12 22:51:23;;;;;;;0.73;0.50;;;;;;;6.55;73.73;99326.03;10353821;28;20136;-68
2021/03/12 22:56:24;;;;;;;1.30;1.10;;;;;;;6.54;73.91;99317.25;10353258;28;20125;-69
2021/03/12 23:01:38;;;;;;;1.70;1.40;;;;;;;6.54;73.81;99305.81;10346259;28;20050;-71
2021/03/12 23:06:40;;;;;;;1.70;1.60;;;;;;;6.45;74.01;99309.19;10356685;28;20754;-71
2021/03/12 23:11:41;;;;;;;2.72;2.17;;;;;;;6.27;75.10;99300.91;10347294;28;20104;-72
2021/03/12 23:16:43;;;;;;;1.70;1.45;;;;;;;6.29;74.36;99309.53;10350057;28;20060;-71
2021/03/12 23:21:45;;;;;;;3.65;1.73;;;;;;;6.28;74.79;99318.44;10345936;28;20500;-71
2021/03/12 23:26:49;;;;;;;2.10;1.90;;;;;;;6.25;75.26;99311.59;10350015;28;20416;-70
2021/03/12 23:32:02;;;;;;;3.60;2.08;;;;;;;6.24;75.11;99325.75;10347863;28;20046;-69
2021/03/12 23:37:04;;;;;;;2.63;2.42;;;;;;;6.28;74.65;99311.34;10359382;28;20738;-70
2021/03/12 23:42:05;;;;;;;3.45;2.35;;;;;;;6.32;74.47;99310.16;10351856;28;20069;-71
2021/03/12 23:47:07;;;;;;;2.83;1.85;;;;;;;6.44;73.98;99316.28;10350047;28;20145;-71